• Join FlightAware (Why Join?)
  • Login
  • US Flag 
10:18AM EST


 

Airport Tracker/Info


-or-


 

Live Flight TrackerFlight Track Log ✈ CES2227 ✈ 24-Jul-2014 ✈ ZSPD / PVG - ZUJZ / JZH

Flight Track Log - Related Links

Times and Time Zones

All times are in EDT time to prevent confusion due to time zone crossing. See the CES2227 flight status page for this flight to view local times or setup timezone preferences in your user account.

Time Position Orientation Groundspeed Altitude Reporting Facility
EDT Latitude Longitude Course Direction KTS MPH feet Rate Location/Type
01:21AM 31.1203 121.8008 161° South 128 147 2,300  Level FlightAware ADS-B (ZSSL)
01:21AM 31.1121 121.8038 162° South 126 145 2,800 1,980 Climbing FlightAware ADS-B (ZSSL)
01:21AM 31.1035 121.8069 162° South 127 146 3,300 1,800 Climbing FlightAware ADS-B (ZSSL)
01:21AM 31.0951 121.8101 161° South 136 157 3,700 1,380 Climbing FlightAware ADS-B (ZSSL)
01:22AM 31.0854 121.8138 162° South 155 178 4,000 1,200 Climbing FlightAware ADS-B (ZSSL)
01:22AM 31.0743 121.8179 161° South 173 199 4,300 960 Climbing FlightAware ADS-B (ZSSL)
01:22AM 31.0623 121.8224 162° South 194 223 4,500 960 Climbing FlightAware ADS-B (ZSSL)
01:22AM 31.0479 121.8278 161° South 222 255 4,800 1,380 Climbing FlightAware ADS-B (ZSSL)
01:23AM 31.0324 121.8339 162° South 242 278 5,200 1,800 Climbing FlightAware ADS-B (ZSSL)
01:23AM 31.0264 121.8354 169° South 244 281 5,400 2,400 Climbing FlightAware ADS-B (ZSSL)
01:23AM 31.0211 121.8358 178° South 244 281 5,600 2,400 Climbing FlightAware ADS-B (ZSSL)
01:23AM 31.0155 121.8353 188° South 244 281 5,800 2,400 Climbing FlightAware ADS-B (ZSSL)
01:23AM 31.0107 121.8340 196° South 246 283 6,000 1,800 Climbing FlightAware ADS-B (ZSSL)
01:23AM 31.0044 121.8312 204° Southwest 249 287 6,100 1,080 Climbing FlightAware ADS-B (ZSSL)
01:23AM 30.9992 121.8277 213° Southwest 251 289 6,200 1,200 Climbing FlightAware ADS-B (ZSSL)
01:23AM 30.9958 121.8247 219° Southwest 256 295 6,300 1,800 Climbing FlightAware ADS-B (ZSSL)
01:23AM 30.9904 121.8182 229° Southwest 266 306 6,500 2,400 Climbing FlightAware ADS-B (ZSSL)
01:23AM 30.9873 121.8130 237° Southwest 273 314 6,700 4,620 Climbing FlightAware ADS-B (ZSSL)
01:23AM 30.9819 121.7982 253° West 284 327 7,200 3,000 Climbing FlightAware ADS-B (ZSSL)
01:24AM 30.9785 121.7835 255° West 286 329 7,700 3,000 Climbing FlightAware ADS-B (ZSSL)
01:24AM 30.9750 121.7694 254° West 286 329 8,200 2,760 Climbing FlightAware ADS-B (ZSSL)
01:24AM 30.9734 121.7629 254° West 285 328 8,400 2,160 Climbing FlightAware ADS-B (ZSSL)
01:24AM 30.9668 121.7390 252° West 286 329 9,100 2,880 Climbing FlightAware ADS-B (ZSSL)
01:24AM 30.9635 121.7241 261° West 292 336 9,600 2,760 Climbing FlightAware ADS-B (ZSSL)
01:24AM 30.9629 121.7157 269° West 299 344 9,800 2,400 Climbing FlightAware ADS-B (ZSSL)
01:24AM 30.9632 121.7093 276° West 305 351 10,000 840 Climbing FlightAware ADS-B (ZSSL)
01:25AM 30.9736 121.6589 286° West 320 368 10,300 1,020 Climbing FlightAware ADS-B (ZSSL)
01:25AM 30.9772 121.6434 285° West 329 379 10,600 1,500 Climbing FlightAware ADS-B (ZSSL)
01:26AM 30.9905 121.5732 282° West 362 417 11,400 1,260 Climbing FlightAware ADS-B (ZSSL)
01:26AM 30.9950 121.5491 283° West 369 425 11,800 1,980 Climbing FlightAware ADS-B (ZSSL)
01:26AM 31.0036 121.5112 291° West 378 435 12,600 2,160 Climbing FlightAware ADS-B (ZSSL)
01:26AM 31.0118 121.4926 303° West 387 445 12,900 3,180 Climbing FlightAware ADS-B (ZSSL)
01:27AM 31.0213 121.4789 314° West 395 455 13,300 2,400 Climbing FlightAware ADS-B (ZSSL)
01:27AM 31.0242 121.4756 315° West 395 455 13,300 2,280 Level FlightAware ADS-B (ZSSL)
01:27AM 31.0518 121.4513 325° Northwest 401 461 14,100 2,160 Climbing FlightAware ADS-B (ZSSL)
01:27AM 31.0674 121.4386 325° Northwest 404 465 14,400 1,980 Climbing FlightAware ADS-B (ZSSL)
01:28AM 31.1089 121.4047 325° Northwest 412 474 15,400 1,920 Climbing FlightAware ADS-B (ZSSL)
01:28AM 31.1119 121.4023 325° Northwest 411 473 15,300 1,440 Descending FlightAware ADS-B (ZSSL)
01:28AM 31.1557 121.3661 325° Northwest 420 483 16,300 1,920 Climbing FlightAware ADS-B (ZSSL)
01:29AM 31.2002 121.3292 325° Northwest 422 486 17,200 1,800 Climbing FlightAware ADS-B (ZSSL)
01:29AM 31.2659 121.2740 325° Northwest 435 501 18,300 1,740 Climbing FlightAware ADS-B (ZSSS / SHA)
01:30AM 31.3150 121.2326 324° Northwest 440 506 19,200 1,380 Climbing FlightAware ADS-B (ZSSS / SHA)
01:30AM 31.3640 121.1909 325° Northwest 447 514 19,700 480 Climbing FlightAware ADS-B (ZSSS / SHA)
01:31AM 31.4163 121.1466 325° Northwest 447 514 19,700  Level FlightAware ADS-B (ZSSS / SHA)
01:31AM 31.4674 121.1085 336° Northwest 450 518 19,700  Level FlightAware ADS-B (ZSSS / SHA)
01:32AM 31.5319 121.0744 336° Northwest 450 518 19,700 240 Level FlightAware ADS-B (ZSSS / SHA)
01:32AM 31.5955 121.0407 325° Northwest 429 494 20,000 540 Climbing FlightAware ADS-B (ZSSL)
01:35AM 31.6310 120.7907 280° West  Level Estimated
01:36AM 31.6472 120.6752 279° West  Level Estimated
01:37AM 31.6633 120.5597 279° West  Level Estimated
01:38AM 31.6793 120.4442 279° West  Level Estimated
01:39AM 31.6952 120.3286 279° West  Level Estimated
01:40AM 31.7110 120.2130 279° West  Level Estimated
01:41AM 31.7267 120.0974 279° West  Level Estimated
01:42AM 31.7423 119.9817 279° West  Level Estimated
01:43AM 31.7578 119.8660 279° West  Level Estimated
01:44AM 31.7731 119.7502 279° West  Level Estimated
01:45AM 31.7884 119.6344 279° West  Level Estimated
01:46AM 31.8036 119.5185 279° West  Level Estimated
01:47AM 31.8186 119.4027 279° West  Level Estimated
01:48AM 31.8336 119.2867 279° West  Level Estimated
01:49AM 31.8484 119.1708 279° West  Level Estimated
01:50AM 31.8632 119.0548 279° West  Level Estimated
01:51AM 31.8778 118.9388 278° West  Level Estimated
01:52AM 31.8924 118.8227 278° West  Level Estimated
01:53AM 31.9068 118.7066 278° West  Level Estimated
01:54AM 31.9211 118.5905 278° West  Level Estimated
01:55AM 31.9354 118.4743 278° West  Level Estimated
01:56AM 31.9495 118.3581 278° West  Level Estimated
01:57AM 31.9635 118.2418 278° West  Level Estimated
01:58AM 31.9774 118.1256 278° West  Level Estimated
01:59AM 31.9912 118.0092 278° West  Level Estimated
02:00AM 32.0048 117.8929 278° West  Level Estimated
02:01AM 32.0184 117.7765 278° West  Level Estimated
02:02AM 32.0319 117.6601 278° West  Level Estimated
02:03AM 32.0453 117.5436 278° West  Level Estimated
02:04AM 32.0586 117.4271 278° West  Level Estimated
02:05AM 32.0717 117.3106 278° West  Level Estimated
02:06AM 32.0848 117.1941 278° West  Level Estimated
02:07AM 32.0977 117.0775 277° West  Level Estimated
02:08AM 32.1105 116.9609 277° West  Level Estimated
02:09AM 32.1233 116.8442 277° West  Level Estimated
02:10AM 32.1359 116.7275 277° West  Level Estimated
02:11AM 32.1484 116.6108 277° West  Level Estimated
02:12AM 32.1608 116.4940 277° West  Level Estimated
02:13AM 32.1731 116.3773 277° West  Level Estimated
02:14AM 32.1853 116.2605 277° West  Level Estimated
02:15AM 32.1974 116.1436 277° West  Level Estimated
02:16AM 32.2094 116.0267 277° West  Level Estimated
02:17AM 32.2212 115.9098 277° West  Level Estimated
02:18AM 32.2330 115.7929 277° West  Level Estimated
02:19AM 32.2447 115.6759 277° West  Level Estimated
02:20AM 32.2562 115.5589 277° West  Level Estimated
02:21AM 32.2677 115.4419 277° West  Level Estimated
02:22AM 32.2790 115.3249 277° West  Level Estimated
02:23AM 32.2902 115.2078 277° West  Level Estimated
02:24AM 32.3013 115.0907 276° West  Level Estimated
02:25AM 32.3123 114.9735 276° West  Level Estimated
02:26AM 32.3232 114.8564 276° West  Level Estimated
02:27AM 32.3340 114.7392 276° West  Level Estimated
02:28AM 32.3447 114.6219 276° West  Level Estimated
02:29AM 32.3553 114.5047 276° West  Level Estimated
02:30AM 32.3658 114.3874 276° West  Level Estimated
02:31AM 32.3761 114.2701 276° West  Level Estimated
02:32AM 32.3864 114.1527 276° West  Level Estimated
02:33AM 32.3965 114.0354 276° West  Level Estimated
02:34AM 32.4065 113.9180 276° West  Level Estimated
02:35AM 32.4165 113.8006 276° West  Level Estimated
02:36AM 32.4263 113.6831 276° West  Level Estimated
02:37AM 32.4360 113.5657 276° West  Level Estimated
02:38AM 32.4456 113.4482 276° West  Level Estimated
02:39AM 32.4551 113.3307 275° West  Level Estimated
02:40AM 32.4645 113.2131 275° West  Level Estimated
02:41AM 32.4737 113.0956 275° West  Level Estimated
02:42AM 32.4829 112.9780 275° West  Level Estimated
02:43AM 32.4919 112.8604 275° West  Level Estimated
02:44AM 32.5009 112.7427 275° West  Level Estimated
02:45AM 32.5097 112.6251 275° West  Level Estimated
02:46AM 32.5184 112.5074 275° West  Level Estimated
02:47AM 32.5270 112.3897 275° West  Level Estimated
02:48AM 32.5355 112.2720 275° West  Level Estimated
02:49AM 32.5439 112.1542 275° West  Level Estimated
02:50AM 32.5522 112.0365 275° West  Level Estimated
02:51AM 32.5604 111.9187 275° West  Level Estimated
02:52AM 32.5685 111.8008 275° West  Level Estimated
02:53AM 32.5764 111.6830 275° West  Level Estimated
02:54AM 32.5843 111.5652 275° West  Level Estimated
02:55AM 32.5920 111.4473 274° West  Level Estimated
02:56AM 32.5996 111.3294 274° West  Level Estimated
02:57AM 32.6071 111.2115 274° West  Level Estimated
02:58AM 32.6145 111.0935 274° West  Level Estimated
02:59AM 32.6218 110.9756 274° West  Level Estimated
03:00AM 32.6290 110.8576 274° West  Level Estimated
03:01AM 32.6361 110.7396 274° West  Level Estimated
03:02AM 32.6430 110.6216 274° West  Level Estimated
03:03AM 32.6499 110.5036 274° West  Level Estimated
03:04AM 32.6566 110.3855 274° West  Level Estimated
03:05AM 32.6632 110.2675 274° West  Level Estimated
03:06AM 32.6698 110.1494 274° West  Level Estimated
03:07AM 32.6762 110.0313 274° West  Level Estimated
03:08AM 32.6825 109.9132 274° West  Level Estimated
03:09AM 32.6887 109.7950 274° West  Level Estimated
03:10AM 32.6948 109.6769 274° West  Level Estimated
03:11AM 32.7007 109.5587 273° West  Level Estimated
03:12AM 32.7066 109.4406 273° West  Level Estimated
03:13AM 32.7123 109.3223 273° West  Level Estimated
03:14AM 32.7179 109.2041 273° West  Level Estimated
03:15AM 32.7235 109.0859 273° West  Level Estimated
03:16AM 32.7289 108.9677 273° West  Level Estimated
03:17AM 32.7342 108.8494 273° West  Level Estimated
03:18AM 32.7397 108.7247 273° West  Level Estimated
03:19AM 32.7450 108.6000 273° West  Level Estimated
03:20AM 32.7502 108.4753 273° West  Level Estimated
03:21AM 32.7553 108.3505 273° West  Level Estimated
03:22AM 32.7603 108.2258 273° West  Level Estimated
03:23AM 32.7651 108.1010 273° West  Level Estimated
03:24AM 32.7699 107.9762 273° West  Level Estimated
03:25AM 32.7745 107.8514 273° West  Level Estimated
03:26AM 32.7790 107.7266 272° West  Level Estimated
03:27AM 32.7833 107.6017 272° West  Level Estimated
03:28AM 32.7876 107.4769 272° West  Level Estimated
03:29AM 32.7917 107.3520 272° West  Level Estimated
03:30AM 32.7957 107.2272 272° West  Level Estimated
03:31AM 32.7995 107.1023 272° West  Level Estimated
03:32AM 32.8032 106.9774 272° West  Level Estimated
03:33AM 32.8069 106.8525 272° West  Level Estimated
03:34AM 32.8103 106.7276 272° West  Level Estimated
03:35AM 32.8137 106.6027 272° West  Level Estimated
03:36AM 32.8170 106.4778 272° West  Level Estimated
03:37AM 32.8201 106.3528 272° West  Level Estimated
03:38AM 32.8231 106.2279 272° West  Level Estimated
03:39AM 32.8259 106.1030 272° West  Level Estimated
03:40AM 32.8287 105.9780 272° West  Level Estimated
03:41AM 32.8313 105.8530 271° West  Level Estimated
03:42AM 32.8338 105.7281 271° West  Level Estimated
03:43AM 32.8362 105.6031 271° West  Level Estimated
03:44AM 32.8384 105.4781 271° West  Level Estimated
03:45AM 32.8405 105.3531 271° West  Level Estimated
03:46AM 32.8425 105.2281 271° West  Level Estimated
03:47AM 32.8444 105.1031 271° West  Level Estimated
03:48AM 32.8462 104.9781 271° West  Level Estimated
03:49AM 32.8478 104.8531 271° West  Level Estimated
03:50AM 32.8493 104.7281 271° West  Level Estimated
03:51AM 32.8507 104.6030 271° West  Level Estimated
03:52AM 32.8519 104.4780 271° West  Level Estimated
03:53AM 32.8531 104.3530 271° West  Level Estimated
03:54AM 32.8541 104.2279 271° West  Level Estimated
03:55AM 32.8549 104.1029 271° West  Level Estimated
03:56AM 32.8557 103.9779 270° West  Level Estimated
03:57AM 32.8563 103.8528 270° West  Level Estimated
03:58AM 32.8568 103.7278 270° West  Level Estimated
03:59AM 32.8570 103.6830 270° West  Level Estimated
04:00AM 32.8570 103.6830 North  Level Estimated
04:01AM 32.8570 103.6830 North  Level Estimated
04:02AM 32.8570 103.6830 North  Level Estimated
04:03AM 32.8570 103.6830 North  Level Estimated